sensor_id;sensor_type;location;lat;lon;timestamp;P1;durP1;ratioP1;P2;durP2;ratioP2
55409;SDS011;41279;43.546;16.426;2022-12-29T00:01:39;19.00;;;9.98;;
55409;SDS011;41279;43.546;16.426;2022-12-29T00:04:05;16.83;;;9.30;;
55409;SDS011;41279;43.546;16.426;2022-12-29T00:06:31;15.55;;;9.57;;
55409;SDS011;41279;43.546;16.426;2022-12-29T00:08:56;20.17;;;10.20;;
55409;SDS011;41279;43.546;16.426;2022-12-29T00:11:25;17.05;;;10.52;;
55409;SDS011;41279;43.546;16.426;2022-12-29T00:13:52;20.30;;;11.15;;
55409;SDS011;41279;43.546;16.426;2022-12-29T00:19:03;19.45;;;10.82;;
55409;SDS011;41279;43.546;16.426;2022-12-29T00:21:29;20.25;;;10.80;;
55409;SDS011;41279;43.546;16.426;2022-12-29T00:24:17;26.70;;;13.32;;
55409;SDS011;41279;43.546;16.426;2022-12-29T00:26:54;27.85;;;13.50;;
55409;SDS011;41279;43.546;16.426;2022-12-29T00:29:42;27.35;;;14.43;;
55409;SDS011;41279;43.546;16.426;2022-12-29T00:32:25;27.07;;;15.67;;
55409;SDS011;41279;43.546;16.426;2022-12-29T00:35:10;20.03;;;11.53;;
55409;SDS011;41279;43.546;16.426;2022-12-29T00:37:39;16.67;;;9.73;;
55409;SDS011;41279;43.546;16.426;2022-12-29T00:40:29;15.65;;;9.40;;
55409;SDS011;41279;43.546;16.426;2022-12-29T00:43:13;15.52;;;8.60;;
55409;SDS011;41279;43.546;16.426;2022-12-29T00:45:57;15.38;;;8.57;;
55409;SDS011;41279;43.546;16.426;2022-12-29T00:48:22;17.25;;;9.38;;
55409;SDS011;41279;43.546;16.426;2022-12-29T00:51:06;18.35;;;9.65;;
55409;SDS011;41279;43.546;16.426;2022-12-29T00:53:32;17.30;;;8.95;;
55409;SDS011;41279;43.546;16.426;2022-12-29T00:55:57;15.30;;;9.25;;
55409;SDS011;41279;43.546;16.426;2022-12-29T00:58:23;15.95;;;8.63;;
55409;SDS011;41279;43.546;16.426;2022-12-29T01:00:48;13.63;;;8.50;;
55409;SDS011;41279;43.546;16.426;2022-12-29T01:03:13;15.73;;;8.90;;
55409;SDS011;41279;43.546;16.426;2022-12-29T01:05:39;16.13;;;9.15;;
55409;SDS011;41279;43.546;16.426;2022-12-29T01:08:04;22.73;;;10.45;;
55409;SDS011;41279;43.546;16.426;2022-12-29T01:10:30;17.10;;;9.88;;
55409;SDS011;41279;43.546;16.426;2022-12-29T01:12:55;16.02;;;9.32;;
55409;SDS011;41279;43.546;16.426;2022-12-29T01:15:20;15.23;;;9.00;;
55409;SDS011;41279;43.546;16.426;2022-12-29T01:17:46;15.43;;;9.35;;
55409;SDS011;41279;43.546;16.426;2022-12-29T01:20:12;13.43;;;8.45;;
55409;SDS011;41279;43.546;16.426;2022-12-29T01:22:38;18.20;;;9.25;;
55409;SDS011;41279;43.546;16.426;2022-12-29T01:25:04;19.33;;;9.50;;
55409;SDS011;41279;43.546;16.426;2022-12-29T01:27:29;16.20;;;9.77;;
55409;SDS011;41279;43.546;16.426;2022-12-29T01:29:55;14.25;;;9.70;;
55409;SDS011;41279;43.546;16.426;2022-12-29T01:32:20;20.35;;;10.10;;
55409;SDS011;41279;43.546;16.426;2022-12-29T01:34:46;18.10;;;10.10;;
55409;SDS011;41279;43.546;16.426;2022-12-29T01:37:11;16.33;;;9.18;;
55409;SDS011;41279;43.546;16.426;2022-12-29T01:39:36;16.98;;;9.68;;
55409;SDS011;41279;43.546;16.426;2022-12-29T01:42:02;14.85;;;8.48;;
55409;SDS011;41279;43.546;16.426;2022-12-29T01:47:11;9.60;;;5.60;;
55409;SDS011;41279;43.546;16.426;2022-12-29T01:49:37;9.43;;;6.07;;
55409;SDS011;41279;43.546;16.426;2022-12-29T01:52:04;14.38;;;7.60;;
55409;SDS011;41279;43.546;16.426;2022-12-29T01:54:34;15.57;;;8.40;;
55409;SDS011;41279;43.546;16.426;2022-12-29T01:57:08;15.68;;;8.23;;
55409;SDS011;41279;43.546;16.426;2022-12-29T01:59:39;17.13;;;9.48;;
55409;SDS011;41279;43.546;16.426;2022-12-29T02:02:19;17.52;;;9.65;;
55409;SDS011;41279;43.546;16.426;2022-12-29T02:04:44;13.07;;;8.13;;
55409;SDS011;41279;43.546;16.426;2022-12-29T02:07:18;14.48;;;7.50;;
55409;SDS011;41279;43.546;16.426;2022-12-29T02:09:46;14.70;;;7.38;;
55409;SDS011;41279;43.546;16.426;2022-12-29T02:12:13;13.15;;;6.47;;
55409;SDS011;41279;43.546;16.426;2022-12-29T02:14:39;15.57;;;7.95;;
55409;SDS011;41279;43.546;16.426;2022-12-29T02:28:17;12.80;;;7.75;;
55409;SDS011;41279;43.546;16.426;2022-12-29T02:37:02;17.48;;;9.48;;
55409;SDS011;41279;43.546;16.426;2022-12-29T02:39:40;15.88;;;10.20;;
55409;SDS011;41279;43.546;16.426;2022-12-29T02:42:23;19.17;;;11.48;;
55409;SDS011;41279;43.546;16.426;2022-12-29T02:45:15;17.77;;;10.77;;
55409;SDS011;41279;43.546;16.426;2022-12-29T02:53:01;16.23;;;9.07;;
55409;SDS011;41279;43.546;16.426;2022-12-29T02:55:30;15.82;;;8.38;;
55409;SDS011;41279;43.546;16.426;2022-12-29T02:58:13;13.38;;;7.50;;
55409;SDS011;41279;43.546;16.426;2022-12-29T03:03:32;15.25;;;8.73;;
55409;SDS011;41279;43.546;16.426;2022-12-29T03:06:30;17.60;;;8.15;;
55409;SDS011;41279;43.546;16.426;2022-12-29T03:11:54;12.40;;;6.88;;
55409;SDS011;41279;43.546;16.426;2022-12-29T03:14:33;14.35;;;7.72;;
55409;SDS011;41279;43.546;16.426;2022-12-29T03:19:54;12.50;;;7.07;;
55409;SDS011;41279;43.546;16.426;2022-12-29T03:22:32;12.38;;;7.05;;
55409;SDS011;41279;43.546;16.426;2022-12-29T03:25:14;14.10;;;7.20;;
55409;SDS011;41279;43.546;16.426;2022-12-29T03:27:47;13.60;;;7.25;;
55409;SDS011;41279;43.546;16.426;2022-12-29T03:30:15;11.98;;;6.90;;
55409;SDS011;41279;43.546;16.426;2022-12-29T03:32:42;12.80;;;6.55;;
55409;SDS011;41279;43.546;16.426;2022-12-29T03:35:13;11.02;;;6.40;;
55409;SDS011;41279;43.546;16.426;2022-12-29T03:37:50;12.93;;;6.03;;
55409;SDS011;41279;43.546;16.426;2022-12-29T03:40:21;9.65;;;6.13;;
55409;SDS011;41279;43.546;16.426;2022-12-29T03:42:48;10.60;;;5.60;;
55409;SDS011;41279;43.546;16.426;2022-12-29T03:45:15;11.50;;;6.00;;
55409;SDS011;41279;43.546;16.426;2022-12-29T03:47:40;7.43;;;4.43;;
55409;SDS011;41279;43.546;16.426;2022-12-29T03:50:06;8.07;;;4.72;;
55409;SDS011;41279;43.546;16.426;2022-12-29T03:52:33;9.05;;;5.18;;
55409;SDS011;41279;43.546;16.426;2022-12-29T03:54:59;7.63;;;4.45;;
55409;SDS011;41279;43.546;16.426;2022-12-29T03:57:24;7.55;;;4.53;;
55409;SDS011;41279;43.546;16.426;2022-12-29T03:59:49;8.52;;;4.70;;
55409;SDS011;41279;43.546;16.426;2022-12-29T04:02:15;8.20;;;4.30;;
55409;SDS011;41279;43.546;16.426;2022-12-29T04:04:40;7.40;;;4.55;;
55409;SDS011;41279;43.546;16.426;2022-12-29T04:07:06;9.20;;;4.90;;
55409;SDS011;41279;43.546;16.426;2022-12-29T04:09:31;8.60;;;4.70;;
55409;SDS011;41279;43.546;16.426;2022-12-29T04:11:56;10.00;;;5.50;;
55409;SDS011;41279;43.546;16.426;2022-12-29T04:14:22;9.43;;;4.93;;
55409;SDS011;41279;43.546;16.426;2022-12-29T04:16:47;8.70;;;4.53;;
55409;SDS011;41279;43.546;16.426;2022-12-29T04:19:12;8.93;;;4.82;;
55409;SDS011;41279;43.546;16.426;2022-12-29T04:21:38;7.65;;;4.18;;
55409;SDS011;41279;43.546;16.426;2022-12-29T04:24:04;7.85;;;4.28;;
55409;SDS011;41279;43.546;16.426;2022-12-29T04:26:31;7.72;;;4.60;;
55409;SDS011;41279;43.546;16.426;2022-12-29T04:28:57;7.55;;;4.80;;
55409;SDS011;41279;43.546;16.426;2022-12-29T04:31:22;8.23;;;4.80;;
55409;SDS011;41279;43.546;16.426;2022-12-29T04:33:48;8.93;;;4.22;;
55409;SDS011;41279;43.546;16.426;2022-12-29T04:36:13;8.68;;;4.13;;
55409;SDS011;41279;43.546;16.426;2022-12-29T04:38:38;7.88;;;4.28;;
55409;SDS011;41279;43.546;16.426;2022-12-29T04:41:04;8.45;;;4.78;;
55409;SDS011;41279;43.546;16.426;2022-12-29T04:43:29;9.35;;;4.20;;
55409;SDS011;41279;43.546;16.426;2022-12-29T04:45:55;9.32;;;4.25;;
55409;SDS011;41279;43.546;16.426;2022-12-29T04:48:20;7.57;;;3.63;;
55409;SDS011;41279;43.546;16.426;2022-12-29T04:50:52;8.05;;;4.28;;
55409;SDS011;41279;43.546;16.426;2022-12-29T04:53:18;8.88;;;4.47;;
55409;SDS011;41279;43.546;16.426;2022-12-29T04:55:43;9.93;;;4.68;;
55409;SDS011;41279;43.546;16.426;2022-12-29T04:58:09;7.75;;;4.38;;
55409;SDS011;41279;43.546;16.426;2022-12-29T05:00:35;11.13;;;4.65;;
55409;SDS011;41279;43.546;16.426;2022-12-29T05:03:00;8.52;;;4.03;;
55409;SDS011;41279;43.546;16.426;2022-12-29T05:05:26;8.25;;;4.47;;
55409;SDS011;41279;43.546;16.426;2022-12-29T05:07:51;10.45;;;6.55;;
55409;SDS011;41279;43.546;16.426;2022-12-29T05:10:16;11.35;;;5.18;;
55409;SDS011;41279;43.546;16.426;2022-12-29T05:12:42;12.20;;;7.32;;
55409;SDS011;41279;43.546;16.426;2022-12-29T05:15:08;9.30;;;5.55;;
55409;SDS011;41279;43.546;16.426;2022-12-29T05:17:34;9.43;;;5.03;;
55409;SDS011;41279;43.546;16.426;2022-12-29T05:19:59;9.25;;;4.25;;
55409;SDS011;41279;43.546;16.426;2022-12-29T05:22:25;7.55;;;4.85;;
55409;SDS011;41279;43.546;16.426;2022-12-29T05:24:50;9.23;;;5.10;;
55409;SDS011;41279;43.546;16.426;2022-12-29T05:27:16;8.38;;;4.20;;
55409;SDS011;41279;43.546;16.426;2022-12-29T05:29:41;9.27;;;5.05;;
55409;SDS011;41279;43.546;16.426;2022-12-29T05:32:06;9.85;;;4.60;;
55409;SDS011;41279;43.546;16.426;2022-12-29T05:34:32;10.48;;;4.57;;
55409;SDS011;41279;43.546;16.426;2022-12-29T05:36:57;9.00;;;5.22;;
55409;SDS011;41279;43.546;16.426;2022-12-29T05:39:22;9.55;;;5.07;;
55409;SDS011;41279;43.546;16.426;2022-12-29T05:41:55;9.25;;;5.57;;
55409;SDS011;41279;43.546;16.426;2022-12-29T05:44:20;10.35;;;6.22;;
55409;SDS011;41279;43.546;16.426;2022-12-29T05:46:45;10.93;;;5.45;;
55409;SDS011;41279;43.546;16.426;2022-12-29T05:49:11;8.20;;;4.57;;
55409;SDS011;41279;43.546;16.426;2022-12-29T05:51:36;7.88;;;4.13;;
55409;SDS011;41279;43.546;16.426;2022-12-29T05:54:01;6.68;;;4.13;;
55409;SDS011;41279;43.546;16.426;2022-12-29T05:56:27;6.18;;;3.63;;
55409;SDS011;41279;43.546;16.426;2022-12-29T05:58:52;6.38;;;3.90;;
55409;SDS011;41279;43.546;16.426;2022-12-29T06:01:17;7.40;;;3.47;;
55409;SDS011;41279;43.546;16.426;2022-12-29T06:03:43;8.43;;;4.20;;
55409;SDS011;41279;43.546;16.426;2022-12-29T06:06:08;9.48;;;5.00;;
55409;SDS011;41279;43.546;16.426;2022-12-29T06:08:33;7.95;;;4.20;;
55409;SDS011;41279;43.546;16.426;2022-12-29T06:10:59;7.70;;;4.00;;
55409;SDS011;41279;43.546;16.426;2022-12-29T06:13:24;7.88;;;4.40;;
55409;SDS011;41279;43.546;16.426;2022-12-29T06:15:50;6.53;;;3.40;;
55409;SDS011;41279;43.546;16.426;2022-12-29T06:18:15;6.05;;;3.53;;
55409;SDS011;41279;43.546;16.426;2022-12-29T06:20:41;6.28;;;3.65;;
55409;SDS011;41279;43.546;16.426;2022-12-29T06:23:07;6.95;;;4.30;;
55409;SDS011;41279;43.546;16.426;2022-12-29T06:25:33;7.72;;;3.53;;
55409;SDS011;41279;43.546;16.426;2022-12-29T06:27:59;6.85;;;4.00;;
55409;SDS011;41279;43.546;16.426;2022-12-29T06:30:25;8.57;;;5.00;;
55409;SDS011;41279;43.546;16.426;2022-12-29T06:32:50;9.30;;;5.07;;
55409;SDS011;41279;43.546;16.426;2022-12-29T06:35:16;8.07;;;4.85;;
55409;SDS011;41279;43.546;16.426;2022-12-29T06:37:42;8.75;;;4.72;;
55409;SDS011;41279;43.546;16.426;2022-12-29T06:40:08;6.97;;;4.53;;
55409;SDS011;41279;43.546;16.426;2022-12-29T06:42:34;8.32;;;4.72;;
55409;SDS011;41279;43.546;16.426;2022-12-29T06:44:59;9.85;;;4.95;;
55409;SDS011;41279;43.546;16.426;2022-12-29T06:47:25;9.18;;;4.80;;
55409;SDS011;41279;43.546;16.426;2022-12-29T06:49:51;13.07;;;4.90;;
55409;SDS011;41279;43.546;16.426;2022-12-29T06:52:17;9.88;;;6.90;;
55409;SDS011;41279;43.546;16.426;2022-12-29T06:54:42;8.30;;;5.22;;
55409;SDS011;41279;43.546;16.426;2022-12-29T06:57:07;10.25;;;6.30;;
55409;SDS011;41279;43.546;16.426;2022-12-29T06:59:33;11.75;;;5.80;;
55409;SDS011;41279;43.546;16.426;2022-12-29T07:01:58;9.73;;;5.82;;
55409;SDS011;41279;43.546;16.426;2022-12-29T07:04:23;9.10;;;5.03;;
55409;SDS011;41279;43.546;16.426;2022-12-29T07:06:49;7.38;;;4.43;;
55409;SDS011;41279;43.546;16.426;2022-12-29T07:09:14;8.70;;;4.50;;
55409;SDS011;41279;43.546;16.426;2022-12-29T07:11:39;11.30;;;5.55;;
55409;SDS011;41279;43.546;16.426;2022-12-29T07:14:05;10.93;;;6.22;;
55409;SDS011;41279;43.546;16.426;2022-12-29T07:16:31;9.63;;;5.78;;
55409;SDS011;41279;43.546;16.426;2022-12-29T07:18:57;9.15;;;5.63;;
55409;SDS011;41279;43.546;16.426;2022-12-29T07:21:23;11.93;;;6.28;;
55409;SDS011;41279;43.546;16.426;2022-12-29T07:23:49;12.65;;;6.78;;
55409;SDS011;41279;43.546;16.426;2022-12-29T07:26:14;12.50;;;6.30;;
55409;SDS011;41279;43.546;16.426;2022-12-29T07:28:42;14.30;;;7.40;;
55409;SDS011;41279;43.546;16.426;2022-12-29T07:31:18;13.70;;;7.32;;
55409;SDS011;41279;43.546;16.426;2022-12-29T07:33:45;15.82;;;7.43;;
55409;SDS011;41279;43.546;16.426;2022-12-29T07:36:11;12.75;;;6.35;;
55409;SDS011;41279;43.546;16.426;2022-12-29T07:38:37;12.15;;;6.40;;
55409;SDS011;41279;43.546;16.426;2022-12-29T07:41:03;13.80;;;7.22;;
55409;SDS011;41279;43.546;16.426;2022-12-29T07:43:28;14.35;;;6.93;;
55409;SDS011;41279;43.546;16.426;2022-12-29T07:45:54;16.58;;;7.63;;
55409;SDS011;41279;43.546;16.426;2022-12-29T07:48:19;13.25;;;6.45;;
55409;SDS011;41279;43.546;16.426;2022-12-29T07:50:45;15.05;;;7.38;;
55409;SDS011;41279;43.546;16.426;2022-12-29T07:53:10;13.55;;;7.18;;
55409;SDS011;41279;43.546;16.426;2022-12-29T07:55:35;12.88;;;6.72;;
55409;SDS011;41279;43.546;16.426;2022-12-29T07:58:01;14.57;;;7.20;;
55409;SDS011;41279;43.546;16.426;2022-12-29T08:00:26;12.38;;;6.47;;
55409;SDS011;41279;43.546;16.426;2022-12-29T08:02:51;15.68;;;7.30;;
55409;SDS011;41279;43.546;16.426;2022-12-29T08:05:17;13.05;;;5.90;;
55409;SDS011;41279;43.546;16.426;2022-12-29T08:07:43;14.20;;;6.20;;
55409;SDS011;41279;43.546;16.426;2022-12-29T08:10:09;15.10;;;6.25;;
55409;SDS011;41279;43.546;16.426;2022-12-29T08:12:37;13.85;;;6.75;;
55409;SDS011;41279;43.546;16.426;2022-12-29T08:15:03;12.43;;;6.80;;
55409;SDS011;41279;43.546;16.426;2022-12-29T08:17:28;24.00;;;10.77;;
55409;SDS011;41279;43.546;16.426;2022-12-29T08:19:54;23.13;;;13.95;;
55409;SDS011;41279;43.546;16.426;2022-12-29T08:22:19;21.30;;;12.13;;
55409;SDS011;41279;43.546;16.426;2022-12-29T08:24:44;23.45;;;11.63;;
55409;SDS011;41279;43.546;16.426;2022-12-29T08:27:10;18.25;;;10.73;;
55409;SDS011;41279;43.546;16.426;2022-12-29T08:29:35;23.65;;;12.52;;
55409;SDS011;41279;43.546;16.426;2022-12-29T08:32:00;17.38;;;10.02;;
55409;SDS011;41279;43.546;16.426;2022-12-29T08:34:26;28.73;;;16.38;;
55409;SDS011;41279;43.546;16.426;2022-12-29T08:36:51;16.30;;;9.50;;
55409;SDS011;41279;43.546;16.426;2022-12-29T08:39:16;13.60;;;8.63;;
55409;SDS011;41279;43.546;16.426;2022-12-29T08:41:42;15.02;;;8.18;;
55409;SDS011;41279;43.546;16.426;2022-12-29T08:44:07;11.80;;;6.50;;
55409;SDS011;41279;43.546;16.426;2022-12-29T08:46:33;11.10;;;6.25;;
55409;SDS011;41279;43.546;16.426;2022-12-29T08:48:58;14.30;;;7.60;;
55409;SDS011;41279;43.546;16.426;2022-12-29T08:51:23;13.90;;;7.47;;
55409;SDS011;41279;43.546;16.426;2022-12-29T08:53:49;13.40;;;7.10;;
55409;SDS011;41279;43.546;16.426;2022-12-29T08:56:15;10.40;;;6.28;;
55409;SDS011;41279;43.546;16.426;2022-12-29T08:58:41;10.13;;;5.63;;
55409;SDS011;41279;43.546;16.426;2022-12-29T09:01:06;10.52;;;5.88;;
55409;SDS011;41279;43.546;16.426;2022-12-29T09:03:31;10.98;;;5.47;;
55409;SDS011;41279;43.546;16.426;2022-12-29T09:05:57;12.27;;;5.90;;
55409;SDS011;41279;43.546;16.426;2022-12-29T09:08:22;35.22;;;17.95;;
55409;SDS011;41279;43.546;16.426;2022-12-29T09:10:48;16.42;;;8.68;;
55409;SDS011;41279;43.546;16.426;2022-12-29T09:13:14;18.20;;;9.23;;
55409;SDS011;41279;43.546;16.426;2022-12-29T09:15:40;14.52;;;9.10;;
55409;SDS011;41279;43.546;16.426;2022-12-29T09:18:06;13.70;;;8.32;;
55409;SDS011;41279;43.546;16.426;2022-12-29T09:20:33;19.70;;;9.93;;
55409;SDS011;41279;43.546;16.426;2022-12-29T09:22:58;19.40;;;9.15;;
55409;SDS011;41279;43.546;16.426;2022-12-29T09:25:24;17.02;;;8.15;;
55409;SDS011;41279;43.546;16.426;2022-12-29T09:27:50;17.13;;;9.40;;
55409;SDS011;41279;43.546;16.426;2022-12-29T09:30:18;20.50;;;10.82;;
55409;SDS011;41279;43.546;16.426;2022-12-29T09:32:44;20.55;;;11.13;;
55409;SDS011;41279;43.546;16.426;2022-12-29T09:35:11;19.42;;;11.38;;
55409;SDS011;41279;43.546;16.426;2022-12-29T09:37:37;22.85;;;11.15;;
55409;SDS011;41279;43.546;16.426;2022-12-29T09:40:02;20.10;;;10.80;;
55409;SDS011;41279;43.546;16.426;2022-12-29T09:42:32;17.75;;;9.52;;
55409;SDS011;41279;43.546;16.426;2022-12-29T09:45:14;22.35;;;10.75;;
55409;SDS011;41279;43.546;16.426;2022-12-29T09:47:43;13.13;;;7.00;;
55409;SDS011;41279;43.546;16.426;2022-12-29T09:50:18;12.68;;;6.32;;
55409;SDS011;41279;43.546;16.426;2022-12-29T09:52:52;10.48;;;6.00;;
55409;SDS011;41279;43.546;16.426;2022-12-29T09:55:26;10.73;;;5.85;;
55409;SDS011;41279;43.546;16.426;2022-12-29T09:58:01;14.73;;;6.15;;
55409;SDS011;41279;43.546;16.426;2022-12-29T10:00:37;10.63;;;6.00;;
55409;SDS011;41279;43.546;16.426;2022-12-29T10:03:19;10.63;;;5.07;;
55409;SDS011;41279;43.546;16.426;2022-12-29T10:05:48;9.40;;;4.38;;
55409;SDS011;41279;43.546;16.426;2022-12-29T10:08:34;10.27;;;5.22;;
55409;SDS011;41279;43.546;16.426;2022-12-29T10:16:52;8.98;;;5.38;;
55409;SDS011;41279;43.546;16.426;2022-12-29T10:22:12;10.05;;;5.10;;
55409;SDS011;41279;43.546;16.426;2022-12-29T10:24:59;9.77;;;5.30;;
55409;SDS011;41279;43.546;16.426;2022-12-29T10:27:29;11.32;;;6.20;;
55409;SDS011;41279;43.546;16.426;2022-12-29T10:29:56;12.48;;;6.15;;
55409;SDS011;41279;43.546;16.426;2022-12-29T10:32:38;13.65;;;6.47;;
55409;SDS011;41279;43.546;16.426;2022-12-29T10:35:16;17.33;;;7.80;;
55409;SDS011;41279;43.546;16.426;2022-12-29T10:40:42;15.32;;;8.23;;
55409;SDS011;41279;43.546;16.426;2022-12-29T10:45:48;13.52;;;8.00;;
55409;SDS011;41279;43.546;16.426;2022-12-29T10:48:25;15.07;;;8.18;;
55409;SDS011;41279;43.546;16.426;2022-12-29T10:50:56;17.15;;;7.95;;
55409;SDS011;41279;43.546;16.426;2022-12-29T10:53:24;14.88;;;7.68;;
55409;SDS011;41279;43.546;16.426;2022-12-29T10:55:55;13.20;;;7.30;;
55409;SDS011;41279;43.546;16.426;2022-12-29T10:58:21;16.17;;;7.75;;
55409;SDS011;41279;43.546;16.426;2022-12-29T11:00:49;13.10;;;7.05;;
55409;SDS011;41279;43.546;16.426;2022-12-29T11:06:11;12.85;;;6.80;;
55409;SDS011;41279;43.546;16.426;2022-12-29T11:08:48;11.52;;;7.07;;
55409;SDS011;41279;43.546;16.426;2022-12-29T11:11:26;8.93;;;4.88;;
55409;SDS011;41279;43.546;16.426;2022-12-29T11:14:10;7.68;;;5.10;;
55409;SDS011;41279;43.546;16.426;2022-12-29T11:16:57;8.88;;;5.00;;
55409;SDS011;41279;43.546;16.426;2022-12-29T11:19:24;7.85;;;5.30;;
55409;SDS011;41279;43.546;16.426;2022-12-29T11:21:51;9.25;;;4.47;;
55409;SDS011;41279;43.546;16.426;2022-12-29T11:26:51;8.35;;;4.53;;
55409;SDS011;41279;43.546;16.426;2022-12-29T11:31:50;10.75;;;5.40;;
55409;SDS011;41279;43.546;16.426;2022-12-29T11:34:33;9.98;;;5.60;;
55409;SDS011;41279;43.546;16.426;2022-12-29T11:37:11;9.32;;;4.97;;
55409;SDS011;41279;43.546;16.426;2022-12-29T11:39:49;7.60;;;4.38;;
55409;SDS011;41279;43.546;16.426;2022-12-29T11:42:20;7.50;;;4.68;;
55409;SDS011;41279;43.546;16.426;2022-12-29T11:44:49;8.73;;;4.30;;
55409;SDS011;41279;43.546;16.426;2022-12-29T11:47:37;8.13;;;4.10;;
55409;SDS011;41279;43.546;16.426;2022-12-29T11:50:03;6.38;;;3.90;;
55409;SDS011;41279;43.546;16.426;2022-12-29T11:52:32;8.02;;;4.30;;
55409;SDS011;41279;43.546;16.426;2022-12-29T11:55:04;9.45;;;4.88;;
55409;SDS011;41279;43.546;16.426;2022-12-29T11:57:32;7.82;;;4.18;;
55409;SDS011;41279;43.546;16.426;2022-12-29T11:59:59;7.68;;;4.65;;
55409;SDS011;41279;43.546;16.426;2022-12-29T12:02:33;6.53;;;4.22;;
55409;SDS011;41279;43.546;16.426;2022-12-29T12:05:12;10.30;;;4.07;;
55409;SDS011;41279;43.546;16.426;2022-12-29T12:07:43;9.75;;;4.32;;
55409;SDS011;41279;43.546;16.426;2022-12-29T12:10:16;20.95;;;9.75;;
55409;SDS011;41279;43.546;16.426;2022-12-29T12:15:19;13.85;;;8.48;;
55409;SDS011;41279;43.546;16.426;2022-12-29T12:20:22;6.90;;;4.28;;
55409;SDS011;41279;43.546;16.426;2022-12-29T12:25:47;7.38;;;4.68;;
55409;SDS011;41279;43.546;16.426;2022-12-29T12:28:21;8.50;;;4.68;;
55409;SDS011;41279;43.546;16.426;2022-12-29T12:30:52;9.23;;;4.95;;
55409;SDS011;41279;43.546;16.426;2022-12-29T12:33:24;9.95;;;4.63;;
55409;SDS011;41279;43.546;16.426;2022-12-29T12:38:54;8.20;;;4.85;;
55409;SDS011;41279;43.546;16.426;2022-12-29T12:44:36;8.65;;;4.50;;
55409;SDS011;41279;43.546;16.426;2022-12-29T12:47:30;14.93;;;9.77;;
55409;SDS011;41279;43.546;16.426;2022-12-29T12:55:56;8.75;;;5.20;;
55409;SDS011;41279;43.546;16.426;2022-12-29T12:58:33;9.15;;;4.82;;
55409;SDS011;41279;43.546;16.426;2022-12-29T13:09:25;8.13;;;4.63;;
55409;SDS011;41279;43.546;16.426;2022-12-29T13:14:34;10.27;;;5.15;;
55409;SDS011;41279;43.546;16.426;2022-12-29T13:25:21;10.25;;;4.50;;
55409;SDS011;41279;43.546;16.426;2022-12-29T13:30:34;9.00;;;4.32;;
55409;SDS011;41279;43.546;16.426;2022-12-29T13:39:05;8.18;;;4.20;;
55409;SDS011;41279;43.546;16.426;2022-12-29T13:41:46;7.60;;;4.25;;
55409;SDS011;41279;43.546;16.426;2022-12-29T13:44:23;7.22;;;4.20;;
55409;SDS011;41279;43.546;16.426;2022-12-29T13:46:52;6.75;;;4.07;;
55409;SDS011;41279;43.546;16.426;2022-12-29T13:49:21;8.10;;;4.22;;
55409;SDS011;41279;43.546;16.426;2022-12-29T13:51:57;9.02;;;4.75;;
55409;SDS011;41279;43.546;16.426;2022-12-29T13:54:35;7.63;;;4.18;;
55409;SDS011;41279;43.546;16.426;2022-12-29T13:57:10;7.63;;;4.03;;
55409;SDS011;41279;43.546;16.426;2022-12-29T13:59:49;7.22;;;4.03;;
55409;SDS011;41279;43.546;16.426;2022-12-29T14:02:42;7.95;;;4.30;;
55409;SDS011;41279;43.546;16.426;2022-12-29T14:07:46;7.25;;;4.30;;
55409;SDS011;41279;43.546;16.426;2022-12-29T14:10:27;8.15;;;4.22;;
55409;SDS011;41279;43.546;16.426;2022-12-29T14:15:37;12.98;;;4.85;;
55409;SDS011;41279;43.546;16.426;2022-12-29T14:18:25;7.57;;;4.70;;
55409;SDS011;41279;43.546;16.426;2022-12-29T14:21:01;8.57;;;4.80;;
55409;SDS011;41279;43.546;16.426;2022-12-29T14:28:32;8.55;;;4.60;;
55409;SDS011;41279;43.546;16.426;2022-12-29T14:30:58;8.63;;;4.32;;
55409;SDS011;41279;43.546;16.426;2022-12-29T14:33:28;7.28;;;4.07;;
55409;SDS011;41279;43.546;16.426;2022-12-29T14:35:56;7.50;;;4.25;;
55409;SDS011;41279;43.546;16.426;2022-12-29T14:38:23;9.43;;;4.90;;
55409;SDS011;41279;43.546;16.426;2022-12-29T14:41:15;9.18;;;4.50;;
55409;SDS011;41279;43.546;16.426;2022-12-29T14:49:31;7.55;;;4.60;;
55409;SDS011;41279;43.546;16.426;2022-12-29T14:52:25;16.38;;;8.48;;
55409;SDS011;41279;43.546;16.426;2022-12-29T14:54:53;8.18;;;5.20;;
55409;SDS011;41279;43.546;16.426;2022-12-29T15:00:00;8.75;;;4.57;;
55409;SDS011;41279;43.546;16.426;2022-12-29T15:02:32;10.07;;;4.50;;
55409;SDS011;41279;43.546;16.426;2022-12-29T15:05:03;7.22;;;4.55;;
55409;SDS011;41279;43.546;16.426;2022-12-29T15:07:31;8.90;;;4.53;;
55409;SDS011;41279;43.546;16.426;2022-12-29T15:10:04;9.32;;;5.00;;
55409;SDS011;41279;43.546;16.426;2022-12-29T15:12:41;8.30;;;4.68;;
55409;SDS011;41279;43.546;16.426;2022-12-29T15:15:25;7.78;;;4.80;;
55409;SDS011;41279;43.546;16.426;2022-12-29T15:17:53;8.57;;;5.03;;
55409;SDS011;41279;43.546;16.426;2022-12-29T15:22:54;8.80;;;5.85;;
55409;SDS011;41279;43.546;16.426;2022-12-29T15:25:27;9.40;;;5.47;;
55409;SDS011;41279;43.546;16.426;2022-12-29T15:27:53;11.48;;;5.05;;
55409;SDS011;41279;43.546;16.426;2022-12-29T15:30:24;9.40;;;5.60;;
55409;SDS011;41279;43.546;16.426;2022-12-29T15:32:50;11.07;;;6.28;;
55409;SDS011;41279;43.546;16.426;2022-12-29T15:37:51;10.90;;;7.20;;
55409;SDS011;41279;43.546;16.426;2022-12-29T15:40:26;13.65;;;7.63;;
55409;SDS011;41279;43.546;16.426;2022-12-29T15:42:58;18.77;;;10.00;;
55409;SDS011;41279;43.546;16.426;2022-12-29T15:45:30;19.83;;;10.95;;
55409;SDS011;41279;43.546;16.426;2022-12-29T15:47:59;15.95;;;8.95;;
55409;SDS011;41279;43.546;16.426;2022-12-29T15:50:29;14.52;;;8.35;;
55409;SDS011;41279;43.546;16.426;2022-12-29T15:52:56;15.65;;;8.82;;
55409;SDS011;41279;43.546;16.426;2022-12-29T15:55:28;18.33;;;9.07;;
55409;SDS011;41279;43.546;16.426;2022-12-29T15:57:57;14.32;;;8.98;;
55409;SDS011;41279;43.546;16.426;2022-12-29T16:00:25;21.52;;;12.38;;
55409;SDS011;41279;43.546;16.426;2022-12-29T16:02:53;17.10;;;8.95;;
55409;SDS011;41279;43.546;16.426;2022-12-29T16:05:20;18.67;;;10.07;;
55409;SDS011;41279;43.546;16.426;2022-12-29T16:07:55;18.38;;;9.93;;
55409;SDS011;41279;43.546;16.426;2022-12-29T16:13:02;14.43;;;8.27;;
55409;SDS011;41279;43.546;16.426;2022-12-29T16:15:29;15.43;;;8.80;;
55409;SDS011;41279;43.546;16.426;2022-12-29T16:17:55;15.50;;;9.30;;
55409;SDS011;41279;43.546;16.426;2022-12-29T16:20:21;13.80;;;8.27;;
55409;SDS011;41279;43.546;16.426;2022-12-29T16:22:54;13.25;;;8.40;;
55409;SDS011;41279;43.546;16.426;2022-12-29T16:25:28;13.65;;;7.72;;
55409;SDS011;41279;43.546;16.426;2022-12-29T16:27:56;14.90;;;7.47;;
55409;SDS011;41279;43.546;16.426;2022-12-29T16:30:31;30.75;;;15.27;;
55409;SDS011;41279;43.546;16.426;2022-12-29T16:33:04;16.63;;;9.30;;
55409;SDS011;41279;43.546;16.426;2022-12-29T16:40:52;17.42;;;11.00;;
55409;SDS011;41279;43.546;16.426;2022-12-29T16:43:25;15.00;;;9.57;;
55409;SDS011;41279;43.546;16.426;2022-12-29T16:50:46;17.27;;;8.75;;
55409;SDS011;41279;43.546;16.426;2022-12-29T16:53:32;18.83;;;11.80;;
55409;SDS011;41279;43.546;16.426;2022-12-29T16:56:03;27.20;;;13.75;;
55409;SDS011;41279;43.546;16.426;2022-12-29T16:58:51;17.70;;;9.27;;
55409;SDS011;41279;43.546;16.426;2022-12-29T17:01:39;23.15;;;12.73;;
55409;SDS011;41279;43.546;16.426;2022-12-29T17:04:06;19.00;;;12.10;;